Time;durP1;ratioP1;P1;durP2;ratioP2;P2;SDS_P1;SDS_P2;PMS_P1;PMS_P2;Temp;Humidity;BMP_temperature;BMP_pressure;BME280_temperature;BME280_humidity;BME280_pressure;Samples;Min_cycle;Max_cycle;Signal;HPM_P1;HPM_P2
2023/08/21 00:00:19;;;;;;;0.00;0.00;;;23.30;99.90;;;;;;7386063;19;20148;-69
2023/08/21 00:02:48;;;;;;;0.00;0.00;;;23.30;99.90;;;;;;7387433;19;20144;-69
2023/08/21 00:05:17;;;;;;;0.00;0.00;;;23.30;99.90;;;;;;7387841;19;20148;-69
2023/08/21 00:07:46;;;;;;;0.00;0.00;;;23.30;99.90;;;;;;7386097;19;20152;-69
2023/08/21 00:10:15;;;;;;;0.00;0.00;;;23.30;99.90;;;;;;7384412;19;20152;-68
2023/08/21 00:12:44;;;;;;;0.00;0.00;;;23.30;99.90;;;;;;7384922;19;20184;-69
2023/08/21 00:15:15;;;;;;;0.00;0.00;;;23.30;99.90;;;;;;7388217;19;20152;-68
2023/08/21 00:17:44;;;;;;;0.00;0.00;;;23.30;99.90;;;;;;7387699;19;20136;-69
2023/08/21 00:20:14;;;;;;;0.00;0.00;;;23.30;99.90;;;;;;7383634;19;20160;-69
2023/08/21 00:22:42;;;;;;;0.00;0.00;;;23.30;99.90;;;;;;7384829;19;20152;-69
2023/08/21 00:25:11;;;;;;;0.00;0.00;;;23.30;99.90;;;;;;7384221;19;20174;-69
2023/08/21 00:27:40;;;;;;;0.00;0.00;;;23.30;99.90;;;;;;7379379;19;20144;-68
2023/08/21 00:30:10;;;;;;;0.00;0.00;;;23.30;99.90;;;;;;7385610;19;20631;-69
2023/08/21 00:32:42;;;;;;;0.00;0.00;;;23.30;99.90;;;;;;7381505;19;20184;-68
2023/08/21 00:35:11;;;;;;;0.00;0.00;;;23.30;99.90;;;;;;7386383;19;20184;-69
2023/08/21 00:37:39;;;;;;;0.00;0.00;;;23.30;99.90;;;;;;7387373;19;20204;-69
2023/08/21 00:40:09;;;;;;;0.00;0.00;;;23.30;99.90;;;;;;7387213;19;20151;-68
2023/08/21 00:42:38;;;;;;;0.00;0.00;;;23.30;99.90;;;;;;7383643;19;20160;-68
2023/08/21 00:45:08;;;;;;;0.00;0.00;;;23.30;99.90;;;;;;7385343;19;20152;-68
2023/08/21 00:47:37;;;;;;;0.00;0.00;;;23.30;99.90;;;;;;7387015;19;20141;-69
2023/08/21 00:50:11;;;;;;;0.00;0.00;;;23.30;99.90;;;;;;7385128;19;20607;-68
2023/08/21 00:52:42;;;;;;;0.00;0.00;;;23.20;99.90;;;;;;7382891;19;20175;-69
2023/08/21 00:55:12;;;;;;;0.00;0.00;;;23.20;99.90;;;;;;7385593;19;20204;-69
2023/08/21 00:57:42;;;;;;;0.00;0.00;;;23.10;99.90;;;;;;7384241;19;20157;-68
2023/08/21 01:00:13;;;;;;;0.00;0.00;;;23.10;99.90;;;;;;7383845;19;20153;-69
2023/08/21 01:02:41;;;;;;;0.00;0.00;;;23.10;99.90;;;;;;7380379;19;20188;-70
2023/08/21 01:05:13;;;;;;;0.00;0.00;;;23.00;99.90;;;;;;7384403;19;20145;-69
2023/08/21 01:07:52;;;;;;;0.00;0.00;;;22.90;99.90;;;;;;7386182;19;20137;-69
2023/08/21 01:10:33;;;;;;;0.00;0.00;;;22.90;99.90;;;;;;7383911;19;20228;-69
2023/08/21 01:13:09;;;;;;;0.00;0.00;;;22.80;99.90;;;;;;7382697;19;20497;-70
2023/08/21 01:15:39;;;;;;;0.00;0.00;;;22.70;99.90;;;;;;7379442;19;20156;-70
2023/08/21 01:18:09;;;;;;;0.00;0.00;;;22.70;99.90;;;;;;7385212;19;20247;-70
2023/08/21 01:20:42;;;;;;;0.00;0.00;;;22.60;99.90;;;;;;7384347;19;20198;-70
2023/08/21 01:23:12;;;;;;;0.00;0.00;;;22.60;99.90;;;;;;7382785;19;20224;-70
2023/08/21 01:25:44;;;;;;;0.00;0.00;;;22.60;99.90;;;;;;7383685;19;20180;-70
2023/08/21 01:28:12;;;;;;;0.00;0.00;;;22.60;99.90;;;;;;7383285;19;20174;-70
2023/08/21 01:30:41;;;;;;;0.00;0.00;;;22.60;99.90;;;;;;7382415;19;20211;-69
2023/08/21 01:33:15;;;;;;;0.00;0.00;;;22.60;99.90;;;;;;7385925;19;20144;-70
2023/08/21 01:35:44;;;;;;;0.00;0.00;;;22.60;99.90;;;;;;7390432;19;20164;-69
2023/08/21 01:38:14;;;;;;;0.00;0.00;;;22.60;99.90;;;;;;7390805;19;20212;-69
2023/08/21 01:40:45;;;;;;;0.00;0.00;;;22.70;99.90;;;;;;7391842;19;20160;-69
2023/08/21 01:43:14;;;;;;;0.00;0.00;;;22.60;99.90;;;;;;7391149;19;20161;-69
2023/08/21 01:45:43;;;;;;;0.00;0.00;;;22.70;99.90;;;;;;7390599;19;20156;-70
2023/08/21 01:48:13;;;;;;;0.00;0.00;;;22.60;99.90;;;;;;7390618;19;20148;-70
2023/08/21 01:50:42;;;;;;;0.00;0.00;;;22.60;99.90;;;;;;7388619;19;20184;-69
2023/08/21 01:53:11;;;;;;;0.00;0.00;;;22.70;99.90;;;;;;7387098;19;20173;-69
2023/08/21 01:55:39;;;;;;;0.00;0.00;;;22.60;99.90;;;;;;7390882;19;20148;-70
2023/08/21 01:58:11;;;;;;;0.00;0.00;;;22.50;99.90;;;;;;7389276;19;20159;-70
2023/08/21 02:00:41;;;;;;;0.00;0.00;;;22.50;99.90;;;;;;7389037;19;20200;-70
2023/08/21 02:03:10;;;;;;;0.00;0.00;;;22.50;99.90;;;;;;7389729;19;20148;-69
2023/08/21 02:05:42;;;;;;;0.00;0.00;;;22.50;99.90;;;;;;7389948;19;20188;-69
2023/08/21 02:08:14;;;;;;;0.00;0.00;;;22.40;99.90;;;;;;7390029;19;20157;-69
2023/08/21 02:10:51;;;;;;;0.00;0.00;;;22.40;99.90;;;;;;7387844;19;20180;-69
2023/08/21 02:13:22;;;;;;;0.00;0.00;;;22.30;99.90;;;;;;7389054;19;20136;-69
2023/08/21 02:15:51;;;;;;;0.00;0.00;;;22.20;99.90;;;;;;7389366;19;20167;-68
2023/08/21 02:18:21;;;;;;;0.00;0.00;;;22.20;99.90;;;;;;7389686;19;20156;-68
2023/08/21 02:20:51;;;;;;;0.00;0.00;;;22.20;99.90;;;;;;7387922;19;20176;-69
2023/08/21 02:23:19;;;;;;;0.00;0.00;;;22.10;99.90;;;;;;7389139;19;20156;-68
2023/08/21 02:25:48;;;;;;;0.00;0.00;;;22.00;99.90;;;;;;7391620;19;20141;-68
2023/08/21 02:28:17;;;;;;;0.00;0.00;;;22.00;99.90;;;;;;7388941;19;20157;-69
2023/08/21 02:30:49;;;;;;;0.00;0.00;;;22.00;99.90;;;;;;7387155;19;20194;-68
2023/08/21 02:33:17;;;;;;;0.00;0.00;;;22.00;99.90;;;;;;7388450;19;20137;-68
2023/08/21 02:35:46;;;;;;;0.00;0.00;;;22.00;99.90;;;;;;7388071;19;20136;-69
2023/08/21 02:38:15;;;;;;;0.00;0.00;;;22.00;99.90;;;;;;7388710;19;20153;-68
2023/08/21 02:40:44;;;;;;;0.00;0.00;;;22.00;99.90;;;;;;7389765;19;20176;-69
2023/08/21 02:43:12;;;;;;;0.00;0.00;;;22.00;99.90;;;;;;7388086;19;20167;-68
2023/08/21 02:45:41;;;;;;;0.00;0.00;;;22.00;99.90;;;;;;7390752;19;20133;-68
2023/08/21 02:48:14;;;;;;;0.00;0.00;;;22.00;99.90;;;;;;7388963;19;20321;-68
2023/08/21 02:50:44;;;;;;;0.00;0.00;;;22.00;99.90;;;;;;7390759;19;20161;-68
2023/08/21 02:53:12;;;;;;;0.00;0.00;;;22.00;99.90;;;;;;7382910;19;20159;-68
2023/08/21 02:55:41;;;;;;;0.00;0.00;;;22.00;99.90;;;;;;7388137;19;20161;-69
2023/08/21 02:58:10;;;;;;;0.00;0.00;;;22.00;99.90;;;;;;7388498;19;20156;-68
2023/08/21 03:00:41;;;;;;;0.00;0.00;;;22.00;99.90;;;;;;7388146;19;20184;-69
2023/08/21 03:03:11;;;;;;;0.00;0.00;;;22.00;99.90;;;;;;7388020;19;20145;-69
2023/08/21 03:05:42;;;;;;;0.00;0.00;;;21.90;99.90;;;;;;7390379;19;20143;-69
2023/08/21 03:08:11;;;;;;;0.00;0.00;;;21.90;99.90;;;;;;7388108;19;20149;-68
2023/08/21 03:10:41;;;;;;;0.00;0.00;;;21.90;99.90;;;;;;7386016;19;20184;-68
2023/08/21 03:13:10;;;;;;;0.00;0.00;;;21.90;99.90;;;;;;7386220;19;20240;-69
2023/08/21 03:15:38;;;;;;;0.00;0.00;;;21.90;99.90;;;;;;7388128;19;20234;-68
2023/08/21 03:18:07;;;;;;;0.00;0.00;;;21.90;99.90;;;;;;7387636;19;20224;-69
2023/08/21 03:20:36;;;;;;;0.00;0.00;;;21.90;99.90;;;;;;7387455;19;20165;-69
2023/08/21 03:23:08;;;;;;;0.00;0.00;;;;;;;;;;7386613;19;20163;-69
2023/08/21 03:25:37;;;;;;;0.00;0.00;;;;;;;;;;7388038;19;20153;-68
2023/08/21 03:28:06;;;;;;;0.00;0.00;;;;;;;;;;7388652;19;20156;-69
2023/08/21 03:30:35;;;;;;;0.00;0.00;;;;;;;;;;7386884;19;20156;-69
2023/08/21 03:33:04;;;;;;;0.00;0.00;;;;;;;;;;7384931;19;20166;-69
2023/08/21 03:35:33;;;;;;;0.00;0.00;;;;;;;;;;7386227;19;20155;-68
2023/08/21 03:38:04;;;;;;;0.00;0.00;;;;;;;;;;7385866;19;20179;-68
2023/08/21 03:40:42;;;;;;;0.00;0.00;;;;;;;;;;7386287;19;20176;-69
2023/08/21 03:43:13;;;;;;;0.00;0.00;;;21.70;99.90;;;;;;7384132;19;20152;-68
2023/08/21 03:45:42;;;;;;;0.00;0.00;;;21.70;99.90;;;;;;7386814;19;20156;-68
2023/08/21 03:48:13;;;;;;;0.00;0.00;;;21.70;99.90;;;;;;7388355;19;20612;-68
2023/08/21 03:50:41;;;;;;;0.00;0.00;;;21.70;99.90;;;;;;7387243;19;20251;-68
2023/08/21 03:53:11;;;;;;;0.00;0.00;;;21.60;99.90;;;;;;7385471;19;20167;-68
2023/08/21 03:55:43;;;;;;;0.00;0.00;;;21.60;99.90;;;;;;7383574;19;20193;-68
2023/08/21 03:58:12;;;;;;;0.00;0.00;;;21.60;99.90;;;;;;7387458;19;20125;-69
2023/08/21 04:00:42;;;;;;;0.00;0.00;;;21.60;99.90;;;;;;7387267;19;20180;-68
2023/08/21 04:03:11;;;;;;;0.00;0.00;;;21.60;99.90;;;;;;7386968;19;20156;-68
2023/08/21 04:05:40;;;;;;;0.00;0.00;;;21.60;99.90;;;;;;7387726;19;20172;-68
2023/08/21 04:08:09;;;;;;;0.00;0.00;;;21.60;99.90;;;;;;7388170;19;20144;-68
2023/08/21 04:10:38;;;;;;;0.00;0.00;;;21.70;99.90;;;;;;7385928;19;20153;-68
2023/08/21 04:13:10;;;;;;;0.00;0.00;;;21.70;99.90;;;;;;7387108;19;20220;-68
2023/08/21 04:15:40;;;;;;;0.00;0.00;;;21.70;99.90;;;;;;7386047;19;20152;-68
2023/08/21 04:18:09;;;;;;;0.00;0.00;;;21.70;99.90;;;;;;7387158;19;20141;-68
2023/08/21 04:20:38;;;;;;;0.00;0.00;;;21.70;99.90;;;;;;7384489;19;20155;-68
2023/08/21 04:23:10;;;;;;;0.00;0.00;;;21.70;99.90;;;;;;7385364;19;20227;-68
2023/08/21 04:25:38;;;;;;;0.00;0.00;;;21.70;99.90;;;;;;7388590;19;20141;-68
2023/08/21 04:28:10;;;;;;;0.00;0.00;;;21.70;99.90;;;;;;7386860;19;20192;-68
2023/08/21 04:30:43;;;;;;;0.00;0.00;;;21.70;99.90;;;;;;7387164;19;20184;-69
2023/08/21 04:33:12;;;;;;;0.00;0.00;;;21.70;99.90;;;;;;7384794;19;20156;-68
2023/08/21 04:35:41;;;;;;;0.00;0.00;;;21.60;99.90;;;;;;7386514;19;20163;-68
2023/08/21 04:38:10;;;;;;;0.00;0.00;;;21.60;99.90;;;;;;7385812;19;20157;-68
2023/08/21 04:40:38;;;;;;;0.00;0.00;;;21.60;99.90;;;;;;7384746;19;20188;-69
2023/08/21 04:43:10;;;;;;;0.00;0.00;;;21.50;99.90;;;;;;7383919;19;20224;-68
2023/08/21 04:45:39;;;;;;;0.00;0.00;;;21.50;99.90;;;;;;7385477;19;20157;-68
2023/08/21 04:48:09;;;;;;;0.00;0.00;;;21.50;99.90;;;;;;7383441;19;20228;-68
2023/08/21 04:50:38;;;;;;;0.00;0.00;;;21.50;99.90;;;;;;7382360;19;20149;-68
2023/08/21 04:53:07;;;;;;;0.00;0.00;;;21.50;99.90;;;;;;7381910;19;20141;-68
2023/08/21 04:55:36;;;;;;;0.00;0.00;;;21.60;99.90;;;;;;7385242;19;20137;-68
2023/08/21 04:58:06;;;;;;;0.00;0.00;;;21.70;99.90;;;;;;7385805;19;20228;-68
2023/08/21 05:00:37;;;;;;;0.00;0.00;;;21.80;99.90;;;;;;7384246;19;20529;-68
2023/08/21 05:03:09;;;;;;;0.00;0.00;;;21.90;99.90;;;;;;7385055;19;20650;-69
2023/08/21 05:05:38;;;;;;;0.00;0.00;;;21.90;99.90;;;;;;7385519;19;20153;-69
2023/08/21 05:08:07;;;;;;;0.00;0.00;;;22.00;99.90;;;;;;7392545;19;20153;-69
2023/08/21 05:10:37;;;;;;;0.00;0.00;;;22.20;99.90;;;;;;7391014;19;20244;-68
2023/08/21 05:13:07;;;;;;;0.00;0.00;;;22.30;99.90;;;;;;7390631;19;20145;-68
2023/08/21 05:15:39;;;;;;;0.00;0.00;;;22.40;99.90;;;;;;7394732;19;20160;-69
2023/08/21 05:18:08;;;;;;;0.00;0.00;;;22.60;99.90;;;;;;7391804;19;20490;-69
2023/08/21 05:20:37;;;;;;;0.00;0.00;;;22.70;99.90;;;;;;7390703;19;20156;-69
2023/08/21 05:23:06;;;;;;;0.00;0.00;;;22.90;99.90;;;;;;7389241;19;20564;-69
2023/08/21 05:25:35;;;;;;;0.00;0.00;;;23.00;99.90;;;;;;7389959;19;20177;-68
2023/08/21 05:28:05;;;;;;;0.00;0.00;;;23.00;99.90;;;;;;7389449;19;20199;-68
2023/08/21 05:30:35;;;;;;;0.00;0.00;;;23.00;99.90;;;;;;7389714;19;20156;-68
2023/08/21 05:33:07;;;;;;;0.00;0.00;;;22.90;99.90;;;;;;7390576;19;20145;-69
2023/08/21 05:35:38;;;;;;;0.00;0.00;;;22.90;99.90;;;;;;7394644;19;20141;-68
2023/08/21 05:38:08;;;;;;;0.00;0.00;;;22.80;99.90;;;;;;7393868;19;20138;-69
2023/08/21 05:40:38;;;;;;;0.00;0.00;;;22.80;99.90;;;;;;7390331;19;20156;-69
2023/08/21 05:43:06;;;;;;;0.00;0.00;;;22.70;99.90;;;;;;7390386;19;20179;-68
2023/08/21 05:45:35;;;;;;;0.00;0.00;;;22.70;99.90;;;;;;7390773;19;20157;-69
2023/08/21 05:48:07;;;;;;;0.00;0.00;;;22.70;99.90;;;;;;7391945;19;20230;-68
2023/08/21 05:50:36;;;;;;;0.00;0.00;;;22.70;99.90;;;;;;7392958;19;20603;-68
2023/08/21 05:53:06;;;;;;;0.00;0.00;;;22.70;99.90;;;;;;7390713;19;20144;-68
2023/08/21 05:55:35;;;;;;;0.00;0.00;;;22.70;99.90;;;;;;7390811;19;20224;-68
2023/08/21 05:58:04;;;;;;;0.00;0.00;;;22.80;99.90;;;;;;7391123;19;20599;-68
2023/08/21 06:00:33;;;;;;;0.00;0.00;;;22.80;99.90;;;;;;7390488;19;20167;-69
2023/08/21 06:03:06;;;;;;;0.00;0.00;;;22.80;99.90;;;;;;7391506;19;20161;-68
2023/08/21 06:05:54;;;;;;;0.00;0.00;;;22.80;99.90;;;;;;7393513;19;20152;-69
2023/08/21 06:08:23;;;;;;;0.00;0.00;;;22.90;99.90;;;;;;7390491;19;20159;-68
2023/08/21 06:10:54;;;;;;;0.00;0.00;;;22.90;99.90;;;;;;7389709;19;20184;-68
2023/08/21 06:13:24;;;;;;;0.00;0.00;;;22.90;99.90;;;;;;7390715;19;20133;-68
2023/08/21 06:15:55;;;;;;;0.00;0.00;;;22.90;99.90;;;;;;7391095;19;20167;-68
2023/08/21 06:18:28;;;;;;;0.00;0.00;;;22.90;99.90;;;;;;7388132;19;20184;-69
2023/08/21 06:20:58;;;;;;;0.00;0.00;;;23.00;99.90;;;;;;7390601;19;20176;-69
2023/08/21 06:23:26;;;;;;;0.00;0.00;;;23.00;99.90;;;;;;7390821;19;20140;-68
2023/08/21 06:25:55;;;;;;;0.00;0.00;;;23.00;99.90;;;;;;7389594;19;20164;-69
2023/08/21 06:28:25;;;;;;;0.00;0.00;;;23.00;99.90;;;;;;7387228;19;20184;-69
2023/08/21 06:31:02;;;;;;;0.00;0.00;;;23.10;99.90;;;;;;7389761;19;20224;-69
2023/08/21 06:33:34;;;;;;;0.00;0.00;;;23.10;99.90;;;;;;7387502;19;20176;-68
2023/08/21 06:36:02;;;;;;;0.00;0.00;;;23.10;99.90;;;;;;7390252;19;20157;-69
2023/08/21 06:38:31;;;;;;;0.00;0.00;;;23.10;99.90;;;;;;7391427;19;20132;-68
2023/08/21 06:41:01;;;;;;;0.00;0.00;;;23.10;99.90;;;;;;7388784;19;20180;-68
2023/08/21 06:43:31;;;;;;;0.00;0.00;;;23.10;99.90;;;;;;7389771;19;20193;-69
2023/08/21 06:46:00;;;;;;;0.00;0.00;;;23.20;99.90;;;;;;7389069;19;20234;-68
2023/08/21 06:48:29;;;;;;;0.00;0.00;;;23.20;99.90;;;;;;7388449;19;20160;-69
2023/08/21 06:51:02;;;;;;;0.00;0.00;;;23.40;99.90;;;;;;7389683;19;20172;-69
2023/08/21 06:53:31;;;;;;;0.00;0.00;;;23.60;99.90;;;;;;7389285;19;20181;-68
2023/08/21 06:56:00;;;;;;;0.00;0.00;;;23.90;99.90;;;;;;7390527;19;20172;-68
2023/08/21 06:58:29;;;;;;;0.00;0.00;;;24.20;99.90;;;;;;7386492;19;20160;-68
2023/08/21 07:00:58;;;;;;;0.00;0.00;;;24.50;99.90;;;;;;7386915;19;20153;-69
2023/08/21 07:03:27;;;;;;;0.00;0.00;;;24.70;99.90;;;;;;7386737;19;20271;-69
2023/08/21 07:06:02;;;;;;;0.00;0.00;;;24.70;99.90;;;;;;7390071;19;20196;-69
2023/08/21 07:08:31;;;;;;;0.00;0.00;;;24.80;99.90;;;;;;7389349;19;20217;-69
2023/08/21 07:11:00;;;;;;;0.00;0.00;;;25.00;99.90;;;;;;7388658;19;20153;-68
2023/08/21 07:13:29;;;;;;;0.00;0.00;;;25.10;99.90;;;;;;7388799;19;20132;-68
2023/08/21 07:15:57;;;;;;;0.00;0.00;;;25.10;99.90;;;;;;7388887;19;20156;-68
2023/08/21 07:18:27;;;;;;;0.00;0.00;;;25.30;99.90;;;;;;7387793;19;20156;-68
2023/08/21 07:20:56;;;;;;;0.00;0.00;;;25.50;99.90;;;;;;7386762;19;20203;-68
2023/08/21 07:23:27;;;;;;;0.00;0.00;;;25.70;99.90;;;;;;7387914;19;20125;-68
2023/08/21 07:25:56;;;;;;;0.00;0.00;;;25.90;99.90;;;;;;7390377;19;20133;-68
2023/08/21 07:28:25;;;;;;;0.00;0.00;;;26.00;99.90;;;;;;7386866;19;20185;-68
2023/08/21 07:30:58;;;;;;;0.00;0.00;;;26.30;99.90;;;;;;7383418;19;20196;-69
2023/08/21 07:33:27;;;;;;;0.00;0.00;;;26.40;99.90;;;;;;7384582;19;20579;-69
2023/08/21 07:36:06;;;;;;;0.00;0.00;;;26.50;99.90;;;;;;7387632;19;20157;-69
2023/08/21 07:38:37;;;;;;;0.00;0.00;;;26.70;99.90;;;;;;7388398;19;20140;-69
2023/08/21 07:41:08;;;;;;;0.00;0.00;;;26.70;99.90;;;;;;7387600;19;20194;-69
2023/08/21 07:43:37;;;;;;;0.00;0.00;;;26.80;99.90;;;;;;7386308;19;20129;-69
2023/08/21 07:46:06;;;;;;;0.00;0.00;;;26.80;99.90;;;;;;7386114;19;20646;-68
2023/08/21 07:48:35;;;;;;;0.00;0.00;;;26.90;99.90;;;;;;7385086;19;20156;-69
2023/08/21 07:51:04;;;;;;;0.00;0.00;;;27.00;99.90;;;;;;7386806;19;20184;-68
2023/08/21 07:53:34;;;;;;;0.00;0.00;;;27.00;99.90;;;;;;7386483;19;20153;-70
2023/08/21 07:56:06;;;;;;;0.00;0.00;;;27.10;99.90;;;;;;7388320;19;20248;-70
2023/08/21 07:58:35;;;;;;;0.00;0.00;;;27.20;99.90;;;;;;7385570;19;20153;-70
2023/08/21 08:01:04;;;;;;;0.00;0.00;;;27.30;99.90;;;;;;7386505;19;20149;-69
2023/08/21 08:03:33;;;;;;;0.00;0.00;;;27.40;99.90;;;;;;7385965;19;20149;-70
2023/08/21 08:06:02;;;;;;;0.00;0.00;;;27.50;99.90;;;;;;7389295;19;20137;-70
2023/08/21 08:08:31;;;;;;;0.00;0.00;;;27.50;99.90;;;;;;7387286;19;20156;-70
2023/08/21 08:11:07;;;;;;;0.00;0.00;;;27.50;99.90;;;;;;7385161;19;20164;-70
2023/08/21 08:13:36;;;;;;;0.00;0.00;;;27.50;99.90;;;;;;7386405;19;20148;-69
2023/08/21 08:16:05;;;;;;;0.00;0.00;;;27.50;99.90;;;;;;7388115;19;20147;-70
2023/08/21 08:18:33;;;;;;;0.00;0.00;;;27.60;99.90;;;;;;7384985;19;20157;-69
2023/08/21 08:21:02;;;;;;;0.00;0.00;;;;;;;;;;7385001;19;20551;-69
2023/08/21 08:23:31;;;;;;;0.00;0.00;;;27.70;99.90;;;;;;7386010;19;20155;-70
2023/08/21 08:26:00;;;;;;;0.00;0.00;;;;;;;;;;7386133;19;20537;-70
2023/08/21 08:28:31;;;;;;;0.00;0.00;;;28.00;99.90;;;;;;7385546;19;20166;-70
2023/08/21 08:31:00;;;;;;;0.00;0.00;;;28.10;99.90;;;;;;7386802;19;20153;-69
2023/08/21 08:33:29;;;;;;;0.00;0.00;;;28.10;99.90;;;;;;7384755;19;20185;-69
2023/08/21 08:35:58;;;;;;;0.00;0.00;;;28.00;99.90;;;;;;7384015;19;20173;-70
2023/08/21 08:38:27;;;;;;;0.00;0.00;;;27.90;99.90;;;;;;7385038;19;20179;-69
2023/08/21 08:40:59;;;;;;;0.00;0.00;;;27.90;99.90;;;;;;7385914;19;20152;-70
2023/08/21 08:43:31;;;;;;;0.00;0.00;;;27.90;99.90;;;;;;7387576;19;20165;-70
2023/08/21 08:46:01;;;;;;;0.00;0.00;;;27.80;99.90;;;;;;7393546;19;20152;-70
2023/08/21 08:48:30;;;;;;;0.00;0.00;;;27.80;99.90;;;;;;7388103;19;20180;-70
2023/08/21 08:50:59;;;;;;;0.00;0.00;;;27.70;99.90;;;;;;7380793;19;20258;-68
2023/08/21 08:53:29;;;;;;;0.00;0.00;;;27.70;99.90;;;;;;7380817;19;20160;-69
2023/08/21 08:56:00;;;;;;;0.00;0.00;;;27.70;99.90;;;;;;7384482;19;20137;-69
2023/08/21 08:58:32;;;;;;;0.00;0.00;;;27.70;99.90;;;;;;7384767;19;20141;-70
2023/08/21 09:01:01;;;;;;;0.00;0.00;;;27.70;99.90;;;;;;7384130;19;20180;-69
2023/08/21 09:03:31;;;;;;;0.00;0.00;;;27.70;99.90;;;;;;7382997;19;20228;-68
2023/08/21 09:06:01;;;;;;;0.00;0.00;;;27.80;99.90;;;;;;7386294;19;20133;-69
2023/08/21 09:08:30;;;;;;;0.00;0.00;;;27.70;99.90;;;;;;7383153;19;20192;-70
2023/08/21 09:11:03;;;;;;;0.00;0.00;;;27.70;99.90;;;;;;7382794;19;20181;-69
2023/08/21 09:13:35;;;;;;;0.00;0.00;;;27.70;99.90;;;;;;7382839;19;20153;-70
2023/08/21 09:16:04;;;;;;;0.00;0.00;;;27.90;99.90;;;;;;7383805;19;20129;-69
2023/08/21 09:18:32;;;;;;;0.00;0.00;;;27.80;99.90;;;;;;7382199;19;20175;-69
2023/08/21 09:21:05;;;;;;;0.00;0.00;;;27.90;99.90;;;;;;7384478;19;20145;-68
2023/08/21 09:23:34;;;;;;;0.00;0.00;;;27.80;99.90;;;;;;7382839;19;20159;-69
2023/08/21 09:26:05;;;;;;;0.00;0.00;;;27.70;99.90;;;;;;7390291;19;20164;-70
2023/08/21 09:28:36;;;;;;;0.00;0.00;;;27.70;99.90;;;;;;7382727;19;20694;-69
2023/08/21 09:31:05;;;;;;;0.00;0.00;;;28.00;99.90;;;;;;7381323;19;20179;-68
2023/08/21 09:33:34;;;;;;;0.00;0.00;;;28.10;99.90;;;;;;7379271;19;20177;-69
2023/08/21 09:36:03;;;;;;;0.00;0.00;;;28.30;99.90;;;;;;7389789;19;20137;-69
2023/08/21 09:38:33;;;;;;;0.00;0.00;;;28.40;99.90;;;;;;7390036;19;20141;-68
2023/08/21 09:41:02;;;;;;;0.00;0.00;;;28.60;99.90;;;;;;7388618;19;20145;-69
2023/08/21 09:43:31;;;;;;;0.00;0.00;;;28.70;99.90;;;;;;7382634;19;20185;-68
2023/08/21 09:46:03;;;;;;;0.00;0.00;;;28.80;99.90;;;;;;7391241;19;20141;-69
2023/08/21 09:48:32;;;;;;;0.00;0.00;;;28.90;99.90;;;;;;7388622;19;20156;-68
2023/08/21 09:51:04;;;;;;;0.00;0.00;;;28.90;99.90;;;;;;7388317;19;20184;-70
2023/08/21 09:53:33;;;;;;;0.00;0.00;;;28.90;99.90;;;;;;7384330;19;20161;-69
2023/08/21 09:56:05;;;;;;;0.00;0.00;;;29.00;99.90;;;;;;7376161;19;20167;-69
2023/08/21 09:58:33;;;;;;;0.00;0.00;;;29.00;99.90;;;;;;7389076;19;20129;-69
2023/08/21 10:01:13;;;;;;;0.00;0.00;;;29.00;99.90;;;;;;7390620;19;20163;-69
2023/08/21 10:03:47;;;;;;;0.00;0.00;;;28.90;99.90;;;;;;7389511;19;20145;-69
2023/08/21 10:06:18;;;;;;;0.00;0.00;;;28.60;99.90;;;;;;7392578;19;20133;-70
2023/08/21 10:08:51;;;;;;;0.00;0.00;;;28.30;99.90;;;;;;7386504;19;20195;-68
2023/08/21 10:11:22;;;;;;;0.00;0.00;;;28.00;99.90;;;;;;7382060;19;20153;-69
2023/08/21 10:13:52;;;;;;;0.00;0.00;;;27.80;99.90;;;;;;7382654;19;20133;-68
2023/08/21 10:16:24;;;;;;;0.00;0.00;;;27.70;99.90;;;;;;7378516;19;20164;-68
2023/08/21 10:18:54;;;;;;;0.00;0.00;;;27.70;99.90;;;;;;7380372;19;20152;-69
2023/08/21 10:21:25;;;;;;;0.00;0.00;;;;;;;;;;7379902;19;20180;-70
2023/08/21 10:23:57;;;;;;;0.00;0.00;;;27.60;99.90;;;;;;7380004;19;20308;-68
2023/08/21 10:26:29;;;;;;;0.00;0.00;;;27.50;99.90;;;;;;7382637;19;20213;-69
2023/08/21 10:29:02;;;;;;;0.00;0.00;;;27.60;99.90;;;;;;7381052;19;20164;-70
2023/08/21 10:31:38;;;;;;;0.00;0.00;;;27.60;99.90;;;;;;7383301;19;20181;-68
2023/08/21 10:34:09;;;;;;;0.00;0.00;;;27.60;99.90;;;;;;7390663;19;20148;-69
2023/08/21 10:37:05;;;;;;;0.00;0.00;;;27.60;99.90;;;;;;7382182;19;20152;-69
2023/08/21 10:39:37;;;;;;;0.00;0.00;;;27.50;99.90;;;;;;7381193;19;20176;-68
2023/08/21 10:42:08;;;;;;;0.00;0.00;;;27.40;99.90;;;;;;7380057;19;20164;-68
2023/08/21 10:44:39;;;;;;;0.00;0.00;;;27.20;99.90;;;;;;7381281;19;20207;-69
2023/08/21 10:47:22;;;;;;;0.00;0.00;;;27.30;99.90;;;;;;7381652;19;20159;-69
2023/08/21 10:49:53;;;;;;;0.00;0.00;;;27.30;99.90;;;;;;7379659;19;20157;-69
2023/08/21 10:52:27;;;;;;;0.00;0.00;;;27.50;99.90;;;;;;7380324;19;20161;-69
2023/08/21 10:54:58;;;;;;;0.00;0.00;;;27.80;99.90;;;;;;7377351;19;20157;-68
2023/08/21 10:57:27;;;;;;;0.00;0.00;;;28.00;99.90;;;;;;7379199;19;20157;-69
2023/08/21 10:59:58;;;;;;;0.00;0.00;;;28.30;99.90;;;;;;7381298;19;20154;-69
2023/08/21 11:02:31;;;;;;;0.00;0.00;;;28.50;99.90;;;;;;7379964;19;20163;-69
2023/08/21 11:05:02;;;;;;;0.00;0.00;;;28.50;99.90;;;;;;7380214;19;20193;-69
2023/08/21 11:07:31;;;;;;;0.00;0.00;;;28.50;99.90;;;;;;7381251;19;20156;-69
2023/08/21 11:10:02;;;;;;;0.00;0.00;;;28.60;99.90;;;;;;7381193;19;20164;-69
2023/08/21 11:12:31;;;;;;;0.00;0.00;;;28.60;99.90;;;;;;7376982;19;20192;-69
2023/08/21 11:15:00;;;;;;;0.00;0.00;;;28.80;99.90;;;;;;7379757;19;20148;-69
2023/08/21 11:17:31;;;;;;;0.00;0.00;;;29.00;99.90;;;;;;7379597;19;20161;-69
2023/08/21 11:20:04;;;;;;;0.00;0.00;;;29.10;99.90;;;;;;7379142;19;20163;-70
2023/08/21 11:22:35;;;;;;;0.00;0.00;;;29.00;99.90;;;;;;7377303;19;20273;-69
2023/08/21 11:25:08;;;;;;;0.00;0.00;;;29.00;99.90;;;;;;7378944;19;20145;-69
2023/08/21 11:27:37;;;;;;;0.00;0.00;;;29.20;99.90;;;;;;7379511;19;20173;-68
2023/08/21 11:30:08;;;;;;;0.00;0.00;;;29.10;99.90;;;;;;7381052;19;20160;-69
2023/08/21 11:32:39;;;;;;;0.00;0.00;;;;;;;;;;7377036;19;20192;-69
2023/08/21 11:35:09;;;;;;;0.00;0.00;;;29.30;99.90;;;;;;7379379;19;20177;-69
2023/08/21 11:37:47;;;;;;;0.00;0.00;;;29.40;99.90;;;;;;7380769;19;20145;-69
2023/08/21 11:40:16;;;;;;;0.00;0.00;;;29.50;99.90;;;;;;7380523;19;20152;-70
2023/08/21 11:42:45;;;;;;;0.00;0.00;;;29.70;99.90;;;;;;7371349;19;20235;-68
2023/08/21 11:45:14;;;;;;;0.00;0.00;;;29.80;99.90;;;;;;7370198;19;20160;-70
2023/08/21 11:47:45;;;;;;;0.00;0.00;;;29.90;99.90;;;;;;7378935;19;20197;-69
2023/08/21 11:50:19;;;;;;;0.00;0.00;;;30.00;99.90;;;;;;7380157;19;20153;-69
2023/08/21 11:52:47;;;;;;;0.00;0.00;;;29.80;99.90;;;;;;7376001;19;20171;-69
2023/08/21 11:55:16;;;;;;;0.00;0.00;;;29.60;99.90;;;;;;7383630;19;20168;-68
2023/08/21 11:57:53;;;;;;;0.00;0.00;;;29.30;99.90;;;;;;7384020;19;20141;-68
2023/08/21 12:00:30;;;;;;;0.00;0.00;;;29.10;99.90;;;;;;7386890;19;20599;-69
2023/08/21 12:03:06;;;;;;;0.00;0.00;;;28.90;99.90;;;;;;7384843;19;20136;-69
2023/08/21 12:05:35;;;;;;;0.00;0.00;;;28.90;99.90;;;;;;7385963;19;20148;-69
2023/08/21 12:08:04;;;;;;;0.00;0.00;;;28.80;99.90;;;;;;7378652;19;20156;-69
2023/08/21 12:10:33;;;;;;;0.00;0.00;;;28.80;99.90;;;;;;7387244;19;20159;-70
2023/08/21 12:13:01;;;;;;;0.00;0.00;;;28.70;99.90;;;;;;7376399;19;20136;-69
2023/08/21 12:15:30;;;;;;;0.00;0.00;;;28.40;99.90;;;;;;7377164;19;20168;-68
2023/08/21 12:18:01;;;;;;;0.00;0.00;;;28.30;99.90;;;;;;7376563;19;20129;-69
2023/08/21 12:20:30;;;;;;;0.00;0.00;;;28.30;99.90;;;;;;7376616;19;20172;-69
2023/08/21 12:22:59;;;;;;;0.00;0.00;;;28.40;99.90;;;;;;7376756;19;20160;-69
2023/08/21 12:25:28;;;;;;;0.00;0.00;;;28.40;99.90;;;;;;7387503;19;20140;-68
2023/08/21 12:27:57;;;;;;;0.00;0.00;;;28.30;99.90;;;;;;7381596;19;20153;-68
2023/08/21 12:30:26;;;;;;;0.00;0.00;;;28.30;99.90;;;;;;7374096;19;20162;-69
2023/08/21 12:32:54;;;;;;;0.00;0.00;;;28.40;99.90;;;;;;7375471;19;20137;-68
2023/08/21 12:35:26;;;;;;;0.00;0.00;;;28.40;99.90;;;;;;7374827;19;20171;-68
2023/08/21 12:38:05;;;;;;;0.00;0.00;;;28.50;99.90;;;;;;7377749;19;20175;-68
2023/08/21 12:40:34;;;;;;;0.00;0.00;;;28.60;99.90;;;;;;7380176;19;20136;-67
2023/08/21 12:43:03;;;;;;;0.00;0.00;;;28.60;99.90;;;;;;7372872;19;20156;-68
2023/08/21 12:45:32;;;;;;;0.00;0.00;;;28.70;99.90;;;;;;7375711;19;20184;-68
2023/08/21 12:48:01;;;;;;;0.00;0.00;;;28.70;99.90;;;;;;7377774;19;20156;-68
2023/08/21 12:50:32;;;;;;;0.00;0.00;;;28.70;99.90;;;;;;7378899;19;20159;-68
2023/08/21 12:53:01;;;;;;;0.00;0.00;;;28.60;99.90;;;;;;7376159;19;20191;-68
2023/08/21 12:55:30;;;;;;;0.00;0.00;;;28.50;99.90;;;;;;7379762;19;20147;-68
2023/08/21 12:57:59;;;;;;;0.00;0.00;;;28.40;99.90;;;;;;7375843;19;20220;-69
2023/08/21 13:00:28;;;;;;;0.00;0.00;;;28.20;99.90;;;;;;7378718;19;20137;-68
2023/08/21 13:02:57;;;;;;;0.00;0.00;;;28.20;99.90;;;;;;7376784;19;20220;-67
2023/08/21 13:05:26;;;;;;;0.00;0.00;;;28.20;99.90;;;;;;7377438;19;20161;-69